Alfred Needler — CG2683 — position and weather

sailwx.info

Track history (hours):
 
Tides and Currents Weather Stations Pressure Air Temp Water Temp Dewpoint Dewpoint Depression Visibility Wind Speed Wind Dir Waves Ship Positions

Oceanographic research ship Alfred Needler (Canada)

Detailed information on ship capabilities available from University of Delaware's Ocean Information Center.

Last reported at 2016-Dec-17 18:31 UTC. Time now 2017-Apr-29 05:52 UTC.
Position N 47°26' W 052°37'.
Warning: this ship's position is months out of date.

Length 50 m; draft 5.2 m.

Type: Fishing. MMSI: 316001017.

Date/timePositionNaut miles runAvg speedWind from/ knotsBaromVisibWave heightAir tempDewpointWater temp
2016-Dec-17 18:31N 47°26' W 052°37'9 9.1
2016-Dec-17 17:33N 47°34' W 052°42'1 0.5
2016-Dec-17 16:34N 47°34' W 052°42'0 0.0
2016-Dec-17 15:24N 47°34' W 052°42'0 0.0
2016-Dec-17 13:30N 47°34' W 052°42'0 0.0
2016-Dec-17 12:30N 47°34' W 052°42'0 0.0
2016-Dec-17 11:24N 47°34' W 052°42'0 0.0
2016-Dec-17 10:30N 47°34' W 052°42'0 0.0
2016-Dec-17 09:18N 47°34' W 052°42'0 0.0
2016-Dec-17 08:33N 47°34' W 052°42'0 0.0
2016-Dec-17 07:27N 47°34' W 052°42'0 0.0
2016-Dec-16 17:18N 47°34' W 052°42'0 0.0
2016-Dec-16 16:33N 47°34' W 052°42'0 0.0
2016-Dec-16 14:30N 47°34' W 052°42'0 0.0
2016-Dec-16 09:18N 47°34' W 052°42'0 0.0
2016-Dec-16 08:30N 47°34' W 052°42'0 0.0
2016-Dec-16 07:06N 47°34' W 052°42'0 0.0
2016-Dec-16 06:27N 47°34' W 052°42'0 0.0
2016-Dec-16 05:33N 47°34' W 052°42'0 0.0
2016-Dec-16 04:27N 47°34' W 052°42'0 0.0
2016-Dec-16 03:30N 47°34' W 052°42'0 0.0
2016-Dec-16 02:33N 47°34' W 052°42'0 0.0
2016-Dec-16 01:33N 47°34' W 052°42'  
2016-Dec-08 00:19N 47°41' W 052°38'5 7.0
2016-Dec-07 23:34N 47°36' W 052°39'3 3.5
2016-Dec-07 22:34N 47°33' W 052°42'0 0.0
2016-Dec-07 21:23N 47°33' W 052°42'0 0.0
2016-Dec-07 20:05N 47°33' W 052°42'0 0.0
2016-Dec-07 19:29N 47°33' W 052°42'  
Track history (hours):
 
Tides and Currents Weather Stations Pressure Air Temp Water Temp Dewpoint Dewpoint Depression Visibility Wind Speed Wind Dir Waves Ship Positions

Oceanographic research ship Alfred Needler (Canada)

Detailed information on ship capabilities available from University of Delaware's Ocean Information Center.

Last reported at 2016-Dec-17 18:31 UTC. Time now 2017-Apr-29 05:52 UTC.
Position N 47°26' W 052°37'.
Warning: this ship's position is months out of date.

Length 50 m; draft 5.2 m.

Type: Fishing. MMSI: 316001017.

Date/timePositionNaut miles runAvg speedWind from/ knotsBaromVisibWave heightAir tempDewpointWater temp
2016-Dec-17 18:31N 47°26' W 052°37'9 9.1
2016-Dec-17 17:33N 47°34' W 052°42'1 0.5
2016-Dec-17 16:34N 47°34' W 052°42'0 0.0
2016-Dec-17 15:24N 47°34' W 052°42'0 0.0
2016-Dec-17 13:30N 47°34' W 052°42'0 0.0
2016-Dec-17 12:30N 47°34' W 052°42'0 0.0
2016-Dec-17 11:24N 47°34' W 052°42'0 0.0
2016-Dec-17 10:30N 47°34' W 052°42'0 0.0
2016-Dec-17 09:18N 47°34' W 052°42'0 0.0
2016-Dec-17 08:33N 47°34' W 052°42'0 0.0
2016-Dec-17 07:27N 47°34' W 052°42'0 0.0
2016-Dec-16 17:18N 47°34' W 052°42'0 0.0
2016-Dec-16 16:33N 47°34' W 052°42'0 0.0
2016-Dec-16 14:30N 47°34' W 052°42'0 0.0
2016-Dec-16 09:18N 47°34' W 052°42'0 0.0
2016-Dec-16 08:30N 47°34' W 052°42'0 0.0
2016-Dec-16 07:06N 47°34' W 052°42'0 0.0
2016-Dec-16 06:27N 47°34' W 052°42'0 0.0
2016-Dec-16 05:33N 47°34' W 052°42'0 0.0
2016-Dec-16 04:27N 47°34' W 052°42'0 0.0
2016-Dec-16 03:30N 47°34' W 052°42'0 0.0
2016-Dec-16 02:33N 47°34' W 052°42'0 0.0
2016-Dec-16 01:33N 47°34' W 052°42'  
2016-Dec-08 00:19N 47°41' W 052°38'5 7.0
2016-Dec-07 23:34N 47°36' W 052°39'3 3.5
2016-Dec-07 22:34N 47°33' W 052°42'0 0.0
2016-Dec-07 21:23N 47°33' W 052°42'0 0.0
2016-Dec-07 20:05N 47°33' W 052°42'0 0.0
2016-Dec-07 19:29N 47°33' W 052°42'  

Dump ship's entire track history